Map

Track Data

SID SEASON NUMBER BASIN SUBBASIN NAME ISO_TIME NATURE LAT LON WMO_WIND WMO_PRES WMO_AGENCY TRACK_TYPE DIST2LAND LANDFALL IFLAG USA_AGENCY USA_ATCF_ID USA_LAT USA_LON USA_RECORD USA_STATUS USA_WIND USA_PRES USA_SSHS USA_R34_NE USA_R34_SE USA_R34_SW USA_R34_NW USA_R50_NE USA_R50_SE USA_R50_SW USA_R50_NW USA_R64_NE USA_R64_SE USA_R64_SW USA_R64_NW USA_POCI USA_ROCI USA_RMW USA_EYE TOKYO_LAT TOKYO_LON TOKYO_GRADE TOKYO_WIND TOKYO_PRES TOKYO_R50_DIR TOKYO_R50_LONG TOKYO_R50_SHORT TOKYO_R30_DIR TOKYO_R30_LONG TOKYO_R30_SHORT TOKYO_LAND CMA_LAT CMA_LON CMA_CAT CMA_WIND CMA_PRES HKO_LAT HKO_LON HKO_CAT HKO_WIND HKO_PRES NEWDELHI_LAT NEWDELHI_LON NEWDELHI_GRADE NEWDELHI_WIND NEWDELHI_PRES NEWDELHI_CI NEWDELHI_DP NEWDELHI_POCI REUNION_LAT REUNION_LON REUNION_TYPE REUNION_WIND REUNION_PRES REUNION_TNUM REUNION_CI REUNION_RMW REUNION_R34_NE REUNION_R34_SE REUNION_R34_SW REUNION_R34_NW REUNION_R50_NE REUNION_R50_SE REUNION_R50_SW REUNION_R50_NW REUNION_R64_NE REUNION_R64_SE REUNION_R64_SW REUNION_R64_NW BOM_LAT BOM_LON BOM_TYPE BOM_WIND BOM_PRES BOM_TNUM BOM_CI BOM_RMW BOM_R34_NE BOM_R34_SE BOM_R34_SW BOM_R34_NW BOM_R50_NE BOM_R50_SE BOM_R50_SW BOM_R50_NW BOM_R64_NE BOM_R64_SE BOM_R64_SW BOM_R64_NW BOM_ROCI BOM_POCI BOM_EYE BOM_POS_METHOD BOM_PRES_METHOD NADI_LAT NADI_LON NADI_CAT NADI_WIND NADI_PRES WELLINGTON_LAT WELLINGTON_LON WELLINGTON_WIND WELLINGTON_PRES DS824_LAT DS824_LON DS824_STAGE DS824_WIND DS824_PRES TD9636_LAT TD9636_LON TD9636_STAGE TD9636_WIND TD9636_PRES TD9635_LAT TD9635_LON TD9635_WIND TD9635_PRES TD9635_ROCI NEUMANN_LAT NEUMANN_LON NEUMANN_CLASS NEUMANN_WIND NEUMANN_PRES MLC_LAT MLC_LON MLC_CLASS MLC_WIND MLC_PRES USA_GUST BOM_GUST BOM_GUST_PER REUNION_GUST REUNION_GUST_PER USA_SEAHGT USA_SEARAD_NE USA_SEARAD_SE USA_SEARAD_SW USA_SEARAD_NW STORM_SPEED STORM_DIR
1952293N15093 1952 82 NI BB NOT_NAMED 1952-10-18 18:00:00 TS 14.6000 92.5000 main 240 240 O________O____ jtwc_io IO111952 14.6000 92.5000 -1 14.6000 92.5000 TC 5 316
1952293N15093 1952 82 NI BB NOT_NAMED 1952-10-18 21:00:00 TS 14.7800 92.3201 main 244 244 P________P____ IO111952 14.7800 92.3201 -1 14.7800 92.3201 TC 4 316
1952293N15093 1952 82 NI BB NOT_NAMED 1952-10-19 00:00:00 TS 14.9000 92.2000 main 247 247 O________O____ jtwc_io IO111952 14.9000 92.2000 -1 14.9000 92.2000 TC 25 2 315
1952293N15093 1952 82 NI BB NOT_NAMED 1952-10-19 03:00:00 TS 14.9200 92.1800 main 247 247 P________PO___ IO111952 14.9225 92.1775 -1 14.9225 92.1775 TC 25 14.9000 92.2000 1 0 0
1952293N15093 1952 82 NI BB NOT_NAMED 1952-10-19 06:00:00 TS 14.9072 92.1969 main 247 247 O________OP___ jtwc_io IO111952 14.9000 92.2000 -1 14.9000 92.2000 TC 25 14.9360 92.1846 1 0 0
1952293N15093 1952 82 NI BB NOT_NAMED 1952-10-19 09:00:00 TS 14.9157 92.1933 main 247 247 P________PP___ IO111952 14.9000 92.2000 -1 14.9000 92.2000 TC 25 14.9575 92.1753 1 0 0
1952293N15093 1952 82 NI BB NOT_NAMED 1952-10-19 12:00:00 TS 14.9168 92.1928 main 247 247 O________OP___ jtwc_io IO111952 14.9000 92.2000 -1 14.9000 92.2000 TC 25 14.9503 92.1784 1 0 0
1952293N15093 1952 82 NI BB NOT_NAMED 1952-10-19 15:00:00 TS 14.9000 92.2000 main 247 247 P________PO___ IO111952 14.9000 92.2000 -1 14.9000 92.2000 TC 25 14.9000 92.2000 1 1 0
1952293N15093 1952 82 NI BB NOT_NAMED 1952-10-19 18:00:00 TS 14.8688 92.2134 main 247 247 O________OP___ jtwc_io IO111952 14.9000 92.2000 -1 14.9000 92.2000 TC 25 14.8065 92.2401 1 1 156
1952293N15093 1952 82 NI BB NOT_NAMED 1952-10-19 21:00:00 TS 14.8275 92.2297 main 253 253 P________PP___ IO111952 14.8775 92.2075 -1 14.8775 92.2075 TC 25 14.7274 92.2741 1 0 0
1952293N15093 1952 82 NI BB NOT_NAMED 1952-10-20 00:00:00 TS 14.8449 92.2237 main 253 247 O________OP___ jtwc_io IO111952 14.9000 92.2000 -1 14.9000 92.2000 TC 25 14.7346 92.2710 1 1 0
1952293N15093 1952 82 NI BB NOT_NAMED 1952-10-20 03:00:00 TS 14.9349 92.2014 main 247 236 P________PO___ IO111952 14.9524 92.2021 -1 14.9524 92.2021 TC 25 14.9000 92.2000 1 4 338
1952293N15093 1952 82 NI BB NOT_NAMED 1952-10-20 06:00:00 TS 15.2381 92.0609 main 242 242 O________OP___ jtwc_io IO111952 15.2000 92.1000 -1 15.2000 92.1000 TC 25 15.3142 91.9828 1 10 333
1952293N15093 1952 82 NI BB NOT_NAMED 1952-10-20 09:00:00 TS 15.8121 91.7396 main 268 267 P________PP___ IO111952 15.7753 91.7582 -1 15.7753 91.7582 TC 25 15.8857 91.7024 1 14 334
1952293N15093 1952 82 NI BB NOT_NAMED 1952-10-20 12:00:00 TS 16.5131 91.4068 main 304 304 O________OP___ jtwc_io IO111952 16.5000 91.4000 -1 16.5000 91.4000 TC 25 16.5393 91.4205 1 15 340
1952293N15093 1952 82 NI BB NOT_NAMED 1952-10-20 15:00:00 TS 17.1716 91.2315 main 332 295 P________PO___ IO111952 17.1574 91.2472 -1 17.1574 91.2472 TC 25 17.2000 91.2000 1 13 350
1952293N15093 1952 82 NI BB NOT_NAMED 1952-10-20 18:00:00 TS 17.8073 91.1797 main 295 260 O________OP___ jtwc_io IO111952 17.8000 91.2000 -1 17.8000 91.2000 TC 25 17.8219 91.1391 1 13 358
1952293N15093 1952 82 NI BB NOT_NAMED 1952-10-20 21:00:00 TS 18.4390 91.1768 main 260 214 P________PP___ IO111952 18.4450 91.1923 -1 18.4450 91.1923 TC 25 18.4272 91.1459 1 12 0
1952293N15093 1952 82 NI BB NOT_NAMED 1952-10-21 00:00:00 TS 18.9896 91.1933 main 214 186 O________OP___ jtwc_io IO111952 19.0000 91.2000 -1 19.0000 91.2000 TC 25 18.9689 91.1799 1 10 358
1952293N15093 1952 82 NI BB NOT_NAMED 1952-10-21 03:00:00 TS 19.4167 91.1717 main 186 175 P________PO___ IO111952 19.4250 91.1576 -1 19.4250 91.1576 TC 25 19.4000 91.2000 1 7 354
1952293N15093 1952 82 NI BB NOT_NAMED 1952-10-21 06:00:00 TS 19.6897 91.1155 main 175 168 O________OP___ jtwc_io IO111952 19.7000 91.1000 -1 19.7000 91.1000 TC 25 19.6690 91.1466 1 4 346
1952293N15093 1952 82 NI BB NOT_NAMED 1952-10-21 09:00:00 TS 19.8341 91.0625 main 168 162 P________PP___ IO111952 19.8375 91.0574 -1 19.8375 91.0574 TC 25 19.8274 91.0725 1 2 333
1952293N15093 1952 82 NI BB NOT_NAMED 1952-10-21 12:00:00 TS 19.9074 90.9957 main 171 171 O________OP___ jtwc_io IO111952 19.9000 91.0000 -1 19.9000 91.0000 TC 25 19.9222 90.9872 1 2 316
1952293N15093 1952 82 NI BB NOT_NAMED 1952-10-21 15:00:00 TS 19.9950 90.9000 main 174 174 P________PO___ IO111952 19.9925 90.9000 -1 19.9925 90.9000 TC 25 20.0000 90.9000 1 3 317
1952293N15093 1952 82 NI BB NOT_NAMED 1952-10-21 18:00:00 TS 20.0995 90.8074 main 179 174 O________OP___ jtwc_io IO111952 20.1000 90.8000 -1 20.1000 90.8000 TC 25 20.0988 90.8185 1 3 328
1952293N15093 1952 82 NI BB NOT_NAMED 1952-10-21 21:00:00 TS 20.2314 90.7397 main 183 164 P________PP___ IO111952 20.2400 90.7375 -1 20.2400 90.7375 TC 25 20.2200 90.7426 1 3 338
1952293N15093 1952 82 NI BB NOT_NAMED 1952-10-22 00:00:00 TS 20.3781 90.6852 main 164 151 O________OP___ jtwc_io IO111952 20.4000 90.7000 -1 20.4000 90.7000 TC 25 20.3563 90.6704 1 3 334
1952293N15093 1952 82 NI BB NOT_NAMED 1952-10-22 03:00:00 NR 20.5000 90.6000 main 151 __________O___ IO111952 -1 TC 20.5000 90.6000 1 3 329

About IBTrACS Database

This database is a web-friendly format of International Best Track Archive for Climate Stewardship (IBTrACS), a global best track data archive curated by NOAA dating back to 1842.

Updated: 2021-10-21